Carson City, Michigan
Current Conditions -  °F | °C
As of 8:15 AM on Tuesday 21 Oct 2014 (Local Time) from KAMN Reporting Station
Overcast Overcast  
Wind Chill: 41°   Ceiling: 2000
Heat Index: 46°   Visibility: 10mi
Dew Point: 41°   Wind: 12mph
Humidity: 82%   Direction: 350°N
Pressure: 30.04"   Gusts: NA
Location:  43.18°N, 84.85°W
Report Text: KAMN 211215Z AUTO 35010KT 10SM OVC020 08/05 A3004 RMK AO2 T00800051
Loading
Personal Weather Stations






























Interactive Weather Map
Tropical Storm Tracking
New forecast layout! Learn more

10-Day Weather Forecast

Advertisements
Track Severe Weather on mobile